sensor_id;sensor_type;location;lat;lon;timestamp;temperature;humidity
38265;DHT22;24062;47.480;8.768;2022-10-15T00:00:21;15.80;90.20
38265;DHT22;24062;47.480;8.768;2022-10-15T00:02:47;15.80;90.50
38265;DHT22;24062;47.480;8.768;2022-10-15T00:05:15;15.80;90.20
38265;DHT22;24062;47.480;8.768;2022-10-15T00:07:42;15.90;90.30
38265;DHT22;24062;47.480;8.768;2022-10-15T00:10:10;15.90;90.30
38265;DHT22;24062;47.480;8.768;2022-10-15T00:12:37;15.90;90.30
38265;DHT22;24062;47.480;8.768;2022-10-15T00:15:05;15.90;90.30
38265;DHT22;24062;47.480;8.768;2022-10-15T00:17:32;15.90;90.40
38265;DHT22;24062;47.480;8.768;2022-10-15T00:19:59;15.90;90.30
38265;DHT22;24062;47.480;8.768;2022-10-15T00:22:27;16.00;90.30
38265;DHT22;24062;47.480;8.768;2022-10-15T00:24:54;16.00;90.30
38265;DHT22;24062;47.480;8.768;2022-10-15T00:27:22;16.00;90.40
38265;DHT22;24062;47.480;8.768;2022-10-15T00:29:49;16.00;90.30
38265;DHT22;24062;47.480;8.768;2022-10-15T00:32:16;15.90;90.30
38265;DHT22;24062;47.480;8.768;2022-10-15T00:34:43;15.90;90.40
38265;DHT22;24062;47.480;8.768;2022-10-15T00:37:10;15.80;90.40
38265;DHT22;24062;47.480;8.768;2022-10-15T00:39:37;15.80;90.60
38265;DHT22;24062;47.480;8.768;2022-10-15T00:42:04;15.80;90.70
38265;DHT22;24062;47.480;8.768;2022-10-15T00:44:51;15.80;90.70
38265;DHT22;24062;47.480;8.768;2022-10-15T00:47:24;15.90;90.80
38265;DHT22;24062;47.480;8.768;2022-10-15T00:49:57;15.90;90.80
38265;DHT22;24062;47.480;8.768;2022-10-15T00:52:28;15.90;90.80
38265;DHT22;24062;47.480;8.768;2022-10-15T00:54:58;15.90;90.80
38265;DHT22;24062;47.480;8.768;2022-10-15T00:57:30;15.90;90.80
38265;DHT22;24062;47.480;8.768;2022-10-15T01:00:02;16.00;90.90
38265;DHT22;24062;47.480;8.768;2022-10-15T01:02:29;16.00;90.80
38265;DHT22;24062;47.480;8.768;2022-10-15T01:04:56;16.00;90.80
38265;DHT22;24062;47.480;8.768;2022-10-15T01:07:23;16.00;90.90
38265;DHT22;24062;47.480;8.768;2022-10-15T01:09:50;16.10;90.90
38265;DHT22;24062;47.480;8.768;2022-10-15T01:12:25;16.10;90.90
38265;DHT22;24062;47.480;8.768;2022-10-15T01:15:02;16.10;90.80
38265;DHT22;24062;47.480;8.768;2022-10-15T01:17:39;16.10;90.80
38265;DHT22;24062;47.480;8.768;2022-10-15T01:23:26;16.10;90.90
38265;DHT22;24062;47.480;8.768;2022-10-15T01:26:06;16.10;91.00
38265;DHT22;24062;47.480;8.768;2022-10-15T01:28:44;16.10;91.00
38265;DHT22;24062;47.480;8.768;2022-10-15T01:31:22;16.10;91.10
38265;DHT22;24062;47.480;8.768;2022-10-15T01:33:57;16.10;91.20
38265;DHT22;24062;47.480;8.768;2022-10-15T01:36:31;16.10;91.20
38265;DHT22;24062;47.480;8.768;2022-10-15T01:39:05;16.10;91.20
38265;DHT22;24062;47.480;8.768;2022-10-15T01:41:39;16.10;91.20
38265;DHT22;24062;47.480;8.768;2022-10-15T01:44:11;16.10;91.30
38265;DHT22;24062;47.480;8.768;2022-10-15T01:46:44;16.10;91.40
38265;DHT22;24062;47.480;8.768;2022-10-15T01:49:14;16.00;91.70
38265;DHT22;24062;47.480;8.768;2022-10-15T01:51:43;16.10;91.40
38265;DHT22;24062;47.480;8.768;2022-10-15T01:54:13;16.10;91.50
38265;DHT22;24062;47.480;8.768;2022-10-15T01:56:43;16.10;91.60
38265;DHT22;24062;47.480;8.768;2022-10-15T01:59:15;16.00;91.60
38265;DHT22;24062;47.480;8.768;2022-10-15T02:01:45;16.10;91.70
38265;DHT22;24062;47.480;8.768;2022-10-15T02:04:20;16.20;91.80
38265;DHT22;24062;47.480;8.768;2022-10-15T02:06:51;16.10;91.80
38265;DHT22;24062;47.480;8.768;2022-10-15T02:09:28;16.20;91.80
38265;DHT22;24062;47.480;8.768;2022-10-15T02:12:06;16.10;91.90
38265;DHT22;24062;47.480;8.768;2022-10-15T02:14:41;16.10;92.00
38265;DHT22;24062;47.480;8.768;2022-10-15T02:17:13;16.20;92.00
38265;DHT22;24062;47.480;8.768;2022-10-15T02:19:42;16.20;92.00
38265;DHT22;24062;47.480;8.768;2022-10-15T02:22:18;16.20;92.00
38265;DHT22;24062;47.480;8.768;2022-10-15T02:24:49;16.20;92.30
38265;DHT22;24062;47.480;8.768;2022-10-15T02:27:17;16.20;92.10
38265;DHT22;24062;47.480;8.768;2022-10-15T02:29:49;16.20;92.00
38265;DHT22;24062;47.480;8.768;2022-10-15T02:32:19;16.30;92.00
38265;DHT22;24062;47.480;8.768;2022-10-15T02:34:48;16.30;92.00
38265;DHT22;24062;47.480;8.768;2022-10-15T02:37:19;16.30;92.00
38265;DHT22;24062;47.480;8.768;2022-10-15T02:39:46;16.40;92.00
38265;DHT22;24062;47.480;8.768;2022-10-15T02:42:14;16.40;92.00
38265;DHT22;24062;47.480;8.768;2022-10-15T02:44:42;16.40;92.00
38265;DHT22;24062;47.480;8.768;2022-10-15T02:47:09;16.50;92.00
38265;DHT22;24062;47.480;8.768;2022-10-15T02:49:37;16.50;92.00
38265;DHT22;24062;47.480;8.768;2022-10-15T02:52:05;16.50;91.90
38265;DHT22;24062;47.480;8.768;2022-10-15T02:54:32;16.50;91.90
38265;DHT22;24062;47.480;8.768;2022-10-15T02:56:59;16.60;91.90
38265;DHT22;24062;47.480;8.768;2022-10-15T02:59:25;16.60;91.90
38265;DHT22;24062;47.480;8.768;2022-10-15T03:01:52;16.60;91.80
38265;DHT22;24062;47.480;8.768;2022-10-15T03:04:19;16.60;91.80
38265;DHT22;24062;47.480;8.768;2022-10-15T03:06:48;16.60;91.70
38265;DHT22;24062;47.480;8.768;2022-10-15T03:09:15;16.60;91.70
38265;DHT22;24062;47.480;8.768;2022-10-15T03:11:42;16.50;91.60
38265;DHT22;24062;47.480;8.768;2022-10-15T03:14:09;16.60;91.80
38265;DHT22;24062;47.480;8.768;2022-10-15T03:16:35;16.60;91.80
38265;DHT22;24062;47.480;8.768;2022-10-15T03:19:02;16.60;91.80
38265;DHT22;24062;47.480;8.768;2022-10-15T03:21:29;16.60;91.70
38265;DHT22;24062;47.480;8.768;2022-10-15T03:23:57;16.60;91.70
38265;DHT22;24062;47.480;8.768;2022-10-15T03:26:24;16.60;91.70
38265;DHT22;24062;47.480;8.768;2022-10-15T03:28:51;16.60;91.70
38265;DHT22;24062;47.480;8.768;2022-10-15T03:31:18;16.70;91.70
38265;DHT22;24062;47.480;8.768;2022-10-15T03:33:45;16.70;91.60
38265;DHT22;24062;47.480;8.768;2022-10-15T03:36:12;16.70;91.60
38265;DHT22;24062;47.480;8.768;2022-10-15T03:38:39;16.70;91.70
38265;DHT22;24062;47.480;8.768;2022-10-15T03:41:07;16.70;91.70
38265;DHT22;24062;47.480;8.768;2022-10-15T03:43:34;16.70;91.70
38265;DHT22;24062;47.480;8.768;2022-10-15T03:46:01;16.70;91.70
38265;DHT22;24062;47.480;8.768;2022-10-15T03:48:28;16.70;91.70
38265;DHT22;24062;47.480;8.768;2022-10-15T03:50:55;16.80;91.70
38265;DHT22;24062;47.480;8.768;2022-10-15T03:53:22;16.70;91.60
38265;DHT22;24062;47.480;8.768;2022-10-15T03:55:49;16.70;91.60
38265;DHT22;24062;47.480;8.768;2022-10-15T03:58:17;16.60;91.60
38265;DHT22;24062;47.480;8.768;2022-10-15T04:00:44;16.60;91.70
38265;DHT22;24062;47.480;8.768;2022-10-15T04:03:11;16.60;91.70
38265;DHT22;24062;47.480;8.768;2022-10-15T04:05:39;16.70;91.80
38265;DHT22;24062;47.480;8.768;2022-10-15T04:08:06;16.70;91.90
38265;DHT22;24062;47.480;8.768;2022-10-15T04:10:33;16.70;91.80
38265;DHT22;24062;47.480;8.768;2022-10-15T04:13:00;16.70;91.70
38265;DHT22;24062;47.480;8.768;2022-10-15T04:15:28;16.80;91.80
38265;DHT22;24062;47.480;8.768;2022-10-15T04:17:55;16.70;91.80
38265;DHT22;24062;47.480;8.768;2022-10-15T04:20:22;16.70;91.90
38265;DHT22;24062;47.480;8.768;2022-10-15T04:22:49;16.70;91.90
38265;DHT22;24062;47.480;8.768;2022-10-15T04:25:16;16.70;91.90
38265;DHT22;24062;47.480;8.768;2022-10-15T04:27:42;16.70;91.90
38265;DHT22;24062;47.480;8.768;2022-10-15T04:30:11;16.70;92.00
38265;DHT22;24062;47.480;8.768;2022-10-15T04:32:39;16.70;91.90
38265;DHT22;24062;47.480;8.768;2022-10-15T04:35:07;16.80;91.80
38265;DHT22;24062;47.480;8.768;2022-10-15T04:37:34;16.80;91.80
38265;DHT22;24062;47.480;8.768;2022-10-15T04:40:01;16.80;91.80
38265;DHT22;24062;47.480;8.768;2022-10-15T04:42:30;16.80;91.80
38265;DHT22;24062;47.480;8.768;2022-10-15T04:44:57;16.80;91.70
38265;DHT22;24062;47.480;8.768;2022-10-15T04:47:23;16.80;91.70
38265;DHT22;24062;47.480;8.768;2022-10-15T04:49:52;16.80;91.70
38265;DHT22;24062;47.480;8.768;2022-10-15T04:52:19;16.80;91.70
38265;DHT22;24062;47.480;8.768;2022-10-15T04:54:45;16.80;91.70
38265;DHT22;24062;47.480;8.768;2022-10-15T04:57:12;16.80;91.60
38265;DHT22;24062;47.480;8.768;2022-10-15T04:59:39;16.80;91.60
38265;DHT22;24062;47.480;8.768;2022-10-15T05:02:08;16.80;91.60
38265;DHT22;24062;47.480;8.768;2022-10-15T05:04:35;16.80;91.60
38265;DHT22;24062;47.480;8.768;2022-10-15T05:07:04;16.80;91.60
38265;DHT22;24062;47.480;8.768;2022-10-15T05:09:31;16.80;91.60
38265;DHT22;24062;47.480;8.768;2022-10-15T05:11:57;16.80;91.60
38265;DHT22;24062;47.480;8.768;2022-10-15T05:14:25;16.80;91.60
38265;DHT22;24062;47.480;8.768;2022-10-15T05:16:51;16.80;91.60
38265;DHT22;24062;47.480;8.768;2022-10-15T05:19:18;16.80;91.60
38265;DHT22;24062;47.480;8.768;2022-10-15T05:21:45;16.80;91.60
38265;DHT22;24062;47.480;8.768;2022-10-15T05:24:14;16.80;91.50
38265;DHT22;24062;47.480;8.768;2022-10-15T05:26:40;16.80;91.60
38265;DHT22;24062;47.480;8.768;2022-10-15T05:29:08;16.80;91.50
38265;DHT22;24062;47.480;8.768;2022-10-15T05:31:35;16.80;91.60
38265;DHT22;24062;47.480;8.768;2022-10-15T05:34:05;16.80;91.60
38265;DHT22;24062;47.480;8.768;2022-10-15T05:36:32;16.90;91.60
38265;DHT22;24062;47.480;8.768;2022-10-15T05:39:03;16.80;91.30
38265;DHT22;24062;47.480;8.768;2022-10-15T05:41:33;16.90;91.50
38265;DHT22;24062;47.480;8.768;2022-10-15T05:43:59;16.80;91.40
38265;DHT22;24062;47.480;8.768;2022-10-15T05:46:26;16.80;91.40
38265;DHT22;24062;47.480;8.768;2022-10-15T05:48:54;16.90;91.50
38265;DHT22;24062;47.480;8.768;2022-10-15T05:51:22;16.90;91.40
38265;DHT22;24062;47.480;8.768;2022-10-15T05:53:51;16.80;91.40
38265;DHT22;24062;47.480;8.768;2022-10-15T05:56:18;16.90;91.50
38265;DHT22;24062;47.480;8.768;2022-10-15T05:58:46;16.90;91.50
38265;DHT22;24062;47.480;8.768;2022-10-15T06:01:13;16.90;91.40
38265;DHT22;24062;47.480;8.768;2022-10-15T06:03:41;16.90;91.30
38265;DHT22;24062;47.480;8.768;2022-10-15T06:06:16;17.00;91.40
38265;DHT22;24062;47.480;8.768;2022-10-15T06:08:43;17.00;91.30
38265;DHT22;24062;47.480;8.768;2022-10-15T06:11:10;17.00;91.30
38265;DHT22;24062;47.480;8.768;2022-10-15T06:13:38;17.00;91.20
38265;DHT22;24062;47.480;8.768;2022-10-15T06:16:07;17.10;91.30
38265;DHT22;24062;47.480;8.768;2022-10-15T06:18:34;17.10;91.30
38265;DHT22;24062;47.480;8.768;2022-10-15T06:21:01;17.10;91.30
38265;DHT22;24062;47.480;8.768;2022-10-15T06:23:28;17.10;91.30
38265;DHT22;24062;47.480;8.768;2022-10-15T06:25:55;17.20;91.20
38265;DHT22;24062;47.480;8.768;2022-10-15T06:28:22;17.20;91.30
38265;DHT22;24062;47.480;8.768;2022-10-15T06:30:49;17.20;91.20
38265;DHT22;24062;47.480;8.768;2022-10-15T06:33:17;17.30;91.30
38265;DHT22;24062;47.480;8.768;2022-10-15T06:35:44;17.30;91.20
38265;DHT22;24062;47.480;8.768;2022-10-15T06:38:11;17.40;91.30
38265;DHT22;24062;47.480;8.768;2022-10-15T06:40:38;17.50;91.30
38265;DHT22;24062;47.480;8.768;2022-10-15T06:43:05;17.60;91.30
38265;DHT22;24062;47.480;8.768;2022-10-15T06:45:33;17.60;91.10
38265;DHT22;24062;47.480;8.768;2022-10-15T06:48:02;17.70;91.20
38265;DHT22;24062;47.480;8.768;2022-10-15T06:50:31;17.80;91.20
38265;DHT22;24062;47.480;8.768;2022-10-15T06:52:58;17.80;91.00
38265;DHT22;24062;47.480;8.768;2022-10-15T06:55:25;17.80;90.90
38265;DHT22;24062;47.480;8.768;2022-10-15T06:57:54;17.80;90.80
38265;DHT22;24062;47.480;8.768;2022-10-15T07:00:21;17.80;90.70
38265;DHT22;24062;47.480;8.768;2022-10-15T07:02:48;17.90;90.80
38265;DHT22;24062;47.480;8.768;2022-10-15T07:05:15;17.90;90.70
38265;DHT22;24062;47.480;8.768;2022-10-15T07:07:50;17.90;90.50
38265;DHT22;24062;47.480;8.768;2022-10-15T07:10:17;17.90;90.60
38265;DHT22;24062;47.480;8.768;2022-10-15T07:12:44;18.00;90.50
38265;DHT22;24062;47.480;8.768;2022-10-15T07:15:11;18.00;90.50
38265;DHT22;24062;47.480;8.768;2022-10-15T07:17:38;18.00;90.50
38265;DHT22;24062;47.480;8.768;2022-10-15T07:20:06;18.00;90.80
38265;DHT22;24062;47.480;8.768;2022-10-15T07:22:33;18.10;90.50
38265;DHT22;24062;47.480;8.768;2022-10-15T07:25:01;18.10;90.10
38265;DHT22;24062;47.480;8.768;2022-10-15T07:27:28;18.10;90.10
38265;DHT22;24062;47.480;8.768;2022-10-15T07:29:55;18.10;89.90
38265;DHT22;24062;47.480;8.768;2022-10-15T07:32:22;18.10;89.80
38265;DHT22;24062;47.480;8.768;2022-10-15T07:34:49;18.20;90.00
38265;DHT22;24062;47.480;8.768;2022-10-15T07:37:16;18.20;90.10
38265;DHT22;24062;47.480;8.768;2022-10-15T07:39:43;18.40;90.10
38265;DHT22;24062;47.480;8.768;2022-10-15T07:42:11;18.50;90.20
38265;DHT22;24062;47.480;8.768;2022-10-15T07:44:38;18.80;89.80
38265;DHT22;24062;47.480;8.768;2022-10-15T07:47:05;19.10;89.80
38265;DHT22;24062;47.480;8.768;2022-10-15T07:49:32;19.30;89.00
38265;DHT22;24062;47.480;8.768;2022-10-15T07:51:59;19.30;88.80
38265;DHT22;24062;47.480;8.768;2022-10-15T07:54:26;19.50;88.70
38265;DHT22;24062;47.480;8.768;2022-10-15T07:56:53;19.60;88.00
38265;DHT22;24062;47.480;8.768;2022-10-15T07:59:21;19.60;87.30
38265;DHT22;24062;47.480;8.768;2022-10-15T08:01:48;19.50;86.50
38265;DHT22;24062;47.480;8.768;2022-10-15T08:04:15;19.50;86.60
38265;DHT22;24062;47.480;8.768;2022-10-15T08:06:42;19.70;85.90
38265;DHT22;24062;47.480;8.768;2022-10-15T08:09:09;19.50;85.00
38265;DHT22;24062;47.480;8.768;2022-10-15T08:11:36;19.20;84.30
38265;DHT22;24062;47.480;8.768;2022-10-15T08:14:03;19.30;85.90
38265;DHT22;24062;47.480;8.768;2022-10-15T08:16:31;19.70;86.60
38265;DHT22;24062;47.480;8.768;2022-10-15T08:18:58;20.40;86.60
38265;DHT22;24062;47.480;8.768;2022-10-15T08:21:25;20.60;84.80
38265;DHT22;24062;47.480;8.768;2022-10-15T08:23:52;20.50;84.80
38265;DHT22;24062;47.480;8.768;2022-10-15T08:26:19;20.40;83.80
38265;DHT22;24062;47.480;8.768;2022-10-15T08:28:46;20.20;83.90
38265;DHT22;24062;47.480;8.768;2022-10-15T08:31:13;20.00;83.70
38265;DHT22;24062;47.480;8.768;2022-10-15T08:33:41;19.80;83.70
38265;DHT22;24062;47.480;8.768;2022-10-15T08:36:10;19.60;83.70
38265;DHT22;24062;47.480;8.768;2022-10-15T08:38:37;19.50;84.10
38265;DHT22;24062;47.480;8.768;2022-10-15T08:41:10;19.50;84.30
38265;DHT22;24062;47.480;8.768;2022-10-15T08:43:41;19.60;85.20
38265;DHT22;24062;47.480;8.768;2022-10-15T08:46:12;19.80;85.40
38265;DHT22;24062;47.480;8.768;2022-10-15T08:48:46;20.00;85.00
38265;DHT22;24062;47.480;8.768;2022-10-15T08:51:16;20.20;84.80
38265;DHT22;24062;47.480;8.768;2022-10-15T08:53:48;20.20;84.40
38265;DHT22;24062;47.480;8.768;2022-10-15T08:56:18;20.30;84.30
38265;DHT22;24062;47.480;8.768;2022-10-15T08:58:52;20.20;83.80
38265;DHT22;24062;47.480;8.768;2022-10-15T09:01:27;20.20;83.90
38265;DHT22;24062;47.480;8.768;2022-10-15T09:04:05;20.20;83.50
38265;DHT22;24062;47.480;8.768;2022-10-15T09:06:35;20.00;83.20
38265;DHT22;24062;47.480;8.768;2022-10-15T09:09:09;20.00;83.20
38265;DHT22;24062;47.480;8.768;2022-10-15T09:11:45;20.10;83.30
38265;DHT22;24062;47.480;8.768;2022-10-15T09:14:16;20.20;84.00
38265;DHT22;24062;47.480;8.768;2022-10-15T09:16:48;20.70;85.40
38265;DHT22;24062;47.480;8.768;2022-10-15T09:19:18;21.40;85.80
38265;DHT22;24062;47.480;8.768;2022-10-15T09:21:47;21.80;84.50
38265;DHT22;24062;47.480;8.768;2022-10-15T09:24:18;22.00;83.40
38265;DHT22;24062;47.480;8.768;2022-10-15T09:26:53;22.10;81.70
38265;DHT22;24062;47.480;8.768;2022-10-15T09:29:26;22.10;80.30
38265;DHT22;24062;47.480;8.768;2022-10-15T09:32:00;22.10;79.70
38265;DHT22;24062;47.480;8.768;2022-10-15T09:34:36;22.10;80.30
38265;DHT22;24062;47.480;8.768;2022-10-15T09:37:08;22.10;79.30
38265;DHT22;24062;47.480;8.768;2022-10-15T09:39:51;22.10;78.90
38265;DHT22;24062;47.480;8.768;2022-10-15T09:42:26;22.20;78.10
38265;DHT22;24062;47.480;8.768;2022-10-15T09:44:56;22.30;78.40
38265;DHT22;24062;47.480;8.768;2022-10-15T09:47:27;22.50;78.40
38265;DHT22;24062;47.480;8.768;2022-10-15T09:49:56;22.90;79.10
38265;DHT22;24062;47.480;8.768;2022-10-15T09:52:30;23.20;78.50
38265;DHT22;24062;47.480;8.768;2022-10-15T09:55:07;23.40;78.20
38265;DHT22;24062;47.480;8.768;2022-10-15T09:57:37;23.70;77.50
38265;DHT22;24062;47.480;8.768;2022-10-15T10:00:08;23.70;76.10
38265;DHT22;24062;47.480;8.768;2022-10-15T10:02:36;23.50;75.40
38265;DHT22;24062;47.480;8.768;2022-10-15T10:05:25;23.20;73.80
38265;DHT22;24062;47.480;8.768;2022-10-15T10:08:06;23.00;73.60
38265;DHT22;24062;47.480;8.768;2022-10-15T10:10:35;22.90;73.20
38265;DHT22;24062;47.480;8.768;2022-10-15T10:13:08;22.90;74.00
38265;DHT22;24062;47.480;8.768;2022-10-15T10:15:44;23.00;73.10
38265;DHT22;24062;47.480;8.768;2022-10-15T10:18:17;22.90;73.00
38265;DHT22;24062;47.480;8.768;2022-10-15T10:20:54;22.80;72.20
38265;DHT22;24062;47.480;8.768;2022-10-15T10:23:24;22.70;72.50
38265;DHT22;24062;47.480;8.768;2022-10-15T10:25:55;23.00;73.00
38265;DHT22;24062;47.480;8.768;2022-10-15T10:28:26;23.30;73.50
38265;DHT22;24062;47.480;8.768;2022-10-15T10:31:00;23.60;72.40
38265;DHT22;24062;47.480;8.768;2022-10-15T10:33:31;23.70;72.00
38265;DHT22;24062;47.480;8.768;2022-10-15T10:35:59;23.60;69.80
38265;DHT22;24062;47.480;8.768;2022-10-15T10:38:30;23.50;70.30
38265;DHT22;24062;47.480;8.768;2022-10-15T10:40:59;23.50;70.50
38265;DHT22;24062;47.480;8.768;2022-10-15T10:43:30;23.60;70.20
38265;DHT22;24062;47.480;8.768;2022-10-15T10:46:00;23.60;70.10
38265;DHT22;24062;47.480;8.768;2022-10-15T10:48:31;23.50;69.40
38265;DHT22;24062;47.480;8.768;2022-10-15T10:51:10;23.70;71.30
38265;DHT22;24062;47.480;8.768;2022-10-15T10:53:45;24.10;70.20
38265;DHT22;24062;47.480;8.768;2022-10-15T10:56:16;24.40;69.60
38265;DHT22;24062;47.480;8.768;2022-10-15T10:58:43;24.40;69.00
38265;DHT22;24062;47.480;8.768;2022-10-15T11:01:12;24.30;67.90
38265;DHT22;24062;47.480;8.768;2022-10-15T11:03:40;24.10;67.10
38265;DHT22;24062;47.480;8.768;2022-10-15T11:09:12;23.50;66.00
38265;DHT22;24062;47.480;8.768;2022-10-15T11:11:51;23.20;66.00
38265;DHT22;24062;47.480;8.768;2022-10-15T11:14:28;23.10;66.70
38265;DHT22;24062;47.480;8.768;2022-10-15T11:17:03;23.10;66.90
38265;DHT22;24062;47.480;8.768;2022-10-15T11:19:40;23.20;67.00
38265;DHT22;24062;47.480;8.768;2022-10-15T11:22:45;23.30;67.60
38265;DHT22;24062;47.480;8.768;2022-10-15T11:25:26;23.70;68.30
38265;DHT22;24062;47.480;8.768;2022-10-15T11:28:17;24.50;69.10
38265;DHT22;24062;47.480;8.768;2022-10-15T11:30:53;25.20;67.60
38265;DHT22;24062;47.480;8.768;2022-10-15T11:33:34;25.50;66.40
38265;DHT22;24062;47.480;8.768;2022-10-15T11:36:17;25.90;66.00
38265;DHT22;24062;47.480;8.768;2022-10-15T11:38:56;26.40;66.30
38265;DHT22;24062;47.480;8.768;2022-10-15T11:41:36;26.60;64.70
38265;DHT22;24062;47.480;8.768;2022-10-15T11:44:19;26.60;62.70
38265;DHT22;24062;47.480;8.768;2022-10-15T11:46:49;26.40;62.90
38265;DHT22;24062;47.480;8.768;2022-10-15T11:49:28;26.20;62.50
38265;DHT22;24062;47.480;8.768;2022-10-15T11:52:12;26.20;62.60
38265;DHT22;24062;47.480;8.768;2022-10-15T11:54:46;26.10;61.70
38265;DHT22;24062;47.480;8.768;2022-10-15T11:57:18;26.30;62.30
38265;DHT22;24062;47.480;8.768;2022-10-15T11:59:53;26.30;61.10
38265;DHT22;24062;47.480;8.768;2022-10-15T12:02:23;26.20;60.80
38265;DHT22;24062;47.480;8.768;2022-10-15T12:04:56;26.30;61.50
38265;DHT22;24062;47.480;8.768;2022-10-15T12:07:28;26.80;62.00
38265;DHT22;24062;47.480;8.768;2022-10-15T12:10:04;27.20;61.40
38265;DHT22;24062;47.480;8.768;2022-10-15T12:12:39;27.40;60.30
38265;DHT22;24062;47.480;8.768;2022-10-15T12:15:19;27.80;60.40
38265;DHT22;24062;47.480;8.768;2022-10-15T12:17:51;28.30;61.00
38265;DHT22;24062;47.480;8.768;2022-10-15T12:20:21;28.50;59.00
38265;DHT22;24062;47.480;8.768;2022-10-15T12:22:57;28.50;58.50
38265;DHT22;24062;47.480;8.768;2022-10-15T12:25:43;28.10;56.30
38265;DHT22;24062;47.480;8.768;2022-10-15T12:28:18;27.80;57.10
38265;DHT22;24062;47.480;8.768;2022-10-15T12:30:57;27.50;56.80
38265;DHT22;24062;47.480;8.768;2022-10-15T12:33:35;27.50;57.60
38265;DHT22;24062;47.480;8.768;2022-10-15T12:36:05;27.90;58.40
38265;DHT22;24062;47.480;8.768;2022-10-15T12:38:36;28.40;58.20
38265;DHT22;24062;47.480;8.768;2022-10-15T12:41:08;28.30;56.20
38265;DHT22;24062;47.480;8.768;2022-10-15T12:43:38;28.10;56.90
38265;DHT22;24062;47.480;8.768;2022-10-15T12:46:08;28.30;57.30
38265;DHT22;24062;47.480;8.768;2022-10-15T12:48:38;28.20;57.40
38265;DHT22;24062;47.480;8.768;2022-10-15T12:51:36;28.60;58.10
38265;DHT22;24062;47.480;8.768;2022-10-15T12:57:56;29.20;56.40
38265;DHT22;24062;47.480;8.768;2022-10-15T13:00:35;29.00;54.80
38265;DHT22;24062;47.480;8.768;2022-10-15T13:08:56;28.80;54.00
38265;DHT22;24062;47.480;8.768;2022-10-15T13:11:29;29.00;54.30
38265;DHT22;24062;47.480;8.768;2022-10-15T13:13:59;29.20;53.60
38265;DHT22;24062;47.480;8.768;2022-10-15T13:16:27;29.90;56.20
38265;DHT22;24062;47.480;8.768;2022-10-15T13:18:55;31.10;55.20
38265;DHT22;24062;47.480;8.768;2022-10-15T13:21:47;31.20;52.40
38265;DHT22;24062;47.480;8.768;2022-10-15T13:24:17;30.60;51.00
38265;DHT22;24062;47.480;8.768;2022-10-15T13:26:44;30.00;50.40
38265;DHT22;24062;47.480;8.768;2022-10-15T13:29:15;29.40;50.40
38265;DHT22;24062;47.480;8.768;2022-10-15T13:31:42;29.00;50.40
38265;DHT22;24062;47.480;8.768;2022-10-15T13:34:15;29.00;51.20
38265;DHT22;24062;47.480;8.768;2022-10-15T13:36:45;29.30;51.80
38265;DHT22;24062;47.480;8.768;2022-10-15T13:39:23;30.60;53.40
38265;DHT22;24062;47.480;8.768;2022-10-15T13:42:02;32.00;52.70
38265;DHT22;24062;47.480;8.768;2022-10-15T13:44:33;32.80;51.10
38265;DHT22;24062;47.480;8.768;2022-10-15T13:47:00;32.80;50.10
38265;DHT22;24062;47.480;8.768;2022-10-15T13:49:27;32.10;48.10
38265;DHT22;24062;47.480;8.768;2022-10-15T13:51:54;31.30;48.40
38265;DHT22;24062;47.480;8.768;2022-10-15T13:54:23;30.90;48.70
38265;DHT22;24062;47.480;8.768;2022-10-15T13:56:52;30.40;48.40
38265;DHT22;24062;47.480;8.768;2022-10-15T13:59:21;30.20;48.70
38265;DHT22;24062;47.480;8.768;2022-10-15T14:01:52;29.60;47.90
38265;DHT22;24062;47.480;8.768;2022-10-15T14:04:25;29.10;48.50
38265;DHT22;24062;47.480;8.768;2022-10-15T14:06:54;28.80;48.80
38265;DHT22;24062;47.480;8.768;2022-10-15T14:09:28;28.50;48.70
38265;DHT22;24062;47.480;8.768;2022-10-15T14:11:57;27.90;48.00
38265;DHT22;24062;47.480;8.768;2022-10-15T14:14:29;27.30;48.20
38265;DHT22;24062;47.480;8.768;2022-10-15T14:16:59;26.80;48.50
38265;DHT22;24062;47.480;8.768;2022-10-15T14:19:27;26.40;48.80
38265;DHT22;24062;47.480;8.768;2022-10-15T14:21:55;26.10;49.00
38265;DHT22;24062;47.480;8.768;2022-10-15T14:24:29;25.70;49.10
38265;DHT22;24062;47.480;8.768;2022-10-15T14:27:02;25.50;49.70
38265;DHT22;24062;47.480;8.768;2022-10-15T14:29:38;25.30;49.80
38265;DHT22;24062;47.480;8.768;2022-10-15T14:32:23;25.10;50.30
38265;DHT22;24062;47.480;8.768;2022-10-15T14:34:51;24.90;51.00
38265;DHT22;24062;47.480;8.768;2022-10-15T14:37:30;24.70;50.40
38265;DHT22;24062;47.480;8.768;2022-10-15T14:40:07;24.60;50.80
38265;DHT22;24062;47.480;8.768;2022-10-15T14:42:38;24.50;51.00
38265;DHT22;24062;47.480;8.768;2022-10-15T14:45:17;24.50;51.00
38265;DHT22;24062;47.480;8.768;2022-10-15T14:47:47;24.40;51.30
38265;DHT22;24062;47.480;8.768;2022-10-15T14:50:16;24.20;51.40
38265;DHT22;24062;47.480;8.768;2022-10-15T14:52:45;24.20;51.60
38265;DHT22;24062;47.480;8.768;2022-10-15T14:55:17;24.10;51.70
38265;DHT22;24062;47.480;8.768;2022-10-15T14:57:45;24.00;52.10
38265;DHT22;24062;47.480;8.768;2022-10-15T15:00:26;24.00;52.20
38265;DHT22;24062;47.480;8.768;2022-10-15T15:02:55;24.10;52.50
38265;DHT22;24062;47.480;8.768;2022-10-15T15:05:24;24.20;52.80
38265;DHT22;24062;47.480;8.768;2022-10-15T15:07:52;24.20;53.00
38265;DHT22;24062;47.480;8.768;2022-10-15T15:10:20;24.30;53.20
38265;DHT22;24062;47.480;8.768;2022-10-15T15:12:50;24.40;53.90
38265;DHT22;24062;47.480;8.768;2022-10-15T15:15:19;24.50;53.60
38265;DHT22;24062;47.480;8.768;2022-10-15T15:17:47;24.50;54.30
38265;DHT22;24062;47.480;8.768;2022-10-15T15:20:16;24.40;53.50
38265;DHT22;24062;47.480;8.768;2022-10-15T15:22:45;24.20;53.50
38265;DHT22;24062;47.480;8.768;2022-10-15T15:25:17;24.20;53.90
38265;DHT22;24062;47.480;8.768;2022-10-15T15:27:44;24.20;54.20
38265;DHT22;24062;47.480;8.768;2022-10-15T15:30:15;24.10;54.20
38265;DHT22;24062;47.480;8.768;2022-10-15T15:32:43;23.90;54.40
38265;DHT22;24062;47.480;8.768;2022-10-15T15:35:19;23.90;54.40
38265;DHT22;24062;47.480;8.768;2022-10-15T15:37:46;23.70;54.70
38265;DHT22;24062;47.480;8.768;2022-10-15T15:40:13;23.70;54.70
38265;DHT22;24062;47.480;8.768;2022-10-15T15:42:41;23.60;54.70
38265;DHT22;24062;47.480;8.768;2022-10-15T15:45:16;23.60;55.10
38265;DHT22;24062;47.480;8.768;2022-10-15T15:47:43;23.70;55.60
38265;DHT22;24062;47.480;8.768;2022-10-15T15:50:11;23.70;55.50
38265;DHT22;24062;47.480;8.768;2022-10-15T15:52:39;23.70;55.50
38265;DHT22;24062;47.480;8.768;2022-10-15T15:55:07;23.70;55.60
38265;DHT22;24062;47.480;8.768;2022-10-15T15:57:35;23.70;55.80
38265;DHT22;24062;47.480;8.768;2022-10-15T16:00:03;23.60;55.80
38265;DHT22;24062;47.480;8.768;2022-10-15T16:02:30;23.50;55.80
38265;DHT22;24062;47.480;8.768;2022-10-15T16:04:57;23.50;56.10